Time;durP1;ratioP1;P1;durP2;ratioP2;P2;SDS_P1;SDS_P2;PMS_P1;PMS_P2;Temp;Humidity;BMP_temperature;BMP_pressure;BME280_temperature;BME280_humidity;BME280_pressure;Samples;Min_cycle;Max_cycle;Signal;HPM_P1;HPM_P2
2022/04/15 00:02:03;;;;;;;;;14.25;12.75;;;;;;;;5057675;28;45953;-69
2022/04/15 00:04:30;;;;;;;;;11.75;11.00;;;;;;;;5055635;28;45445;-69
2022/04/15 00:06:56;;;;;;;;;13.75;13.00;;;;;;;;5057163;28;45448;-69
2022/04/15 00:09:22;;;;;;;;;12.00;11.75;;;;;;;;5057107;28;45522;-69
2022/04/15 00:11:47;;;;;;;;;12.25;11.75;;;;;;;;5057283;28;45452;-70
2022/04/15 00:14:13;;;;;;;;;9.75;9.00;;;;;;;;5057425;28;45574;-69
2022/04/15 00:16:43;;;;;;;;;9.50;9.25;;;;;;;;5057213;28;45575;-69
2022/04/15 00:19:09;;;;;;;;;11.25;10.25;;;;;;;;5057341;28;45435;-69
2022/04/15 00:21:35;;;;;;;;;9.50;9.50;;;;;;;;5057079;28;45572;-69
2022/04/15 00:24:00;;;;;;;;;11.50;11.25;;;;;;;;5056813;28;45568;-70
2022/04/15 00:26:25;;;;;;;;;14.25;13.25;;;;;;;;5054611;28;45408;-70
2022/04/15 00:28:52;;;;;;;;;12.25;12.00;;;;;;;;5056824;28;45326;-69
2022/04/15 00:31:17;;;;;;;;;9.00;8.00;;;;;;;;5057155;28;45302;-70
2022/04/15 00:33:43;;;;;;;;;12.00;11.00;;;;;;;;5057036;28;46353;-70
2022/04/15 00:36:08;;;;;;;;;13.25;13.25;;;;;;;;5058310;28;45331;-70
2022/04/15 00:38:34;;;;;;;;;12.50;12.00;;;;;;;;5058782;28;45461;-70
2022/04/15 00:40:59;;;;;;;;;14.25;12.75;;;;;;;;5058734;28;45268;-70
2022/04/15 00:43:25;;;;;;;;;16.00;14.00;;;;;;;;5058183;28;45330;-70
2022/04/15 00:45:50;;;;;;;;;16.50;12.50;;;;;;;;5056872;28;45377;-70
2022/04/15 00:48:19;;;;;;;;;14.00;12.75;;;;;;;;5058246;28;45524;-70
2022/04/15 00:50:45;;;;;;;;;12.50;10.50;;;;;;;;5058496;28;45529;-70
2022/04/15 00:53:11;;;;;;;;;14.75;13.25;;;;;;;;5057980;28;46075;-70
2022/04/15 00:55:38;;;;;;;;;14.75;14.75;;;;;;;;5058078;28;45508;-70
2022/04/15 00:58:04;;;;;;;;;12.75;12.00;;;;;;;;5058235;28;46130;-70
2022/04/15 01:00:31;;;;;;;;;15.75;14.00;;;;;;;;5058387;28;45316;-70
2022/04/15 01:02:57;;;;;;;;;16.25;14.00;;;;;;;;5057922;28;46352;-70
2022/04/15 01:05:24;;;;;;;;;15.25;14.00;;;;;;;;5058032;28;45586;-70
2022/04/15 01:07:50;;;;;;;;;19.75;16.00;;;;;;;;5058054;28;45328;-70
2022/04/15 01:10:17;;;;;;;;;13.75;13.25;;;;;;;;5057807;28;45351;-70
2022/04/15 01:12:47;;;;;;;;;15.75;14.75;;;;;;;;5057592;28;46213;-70
2022/04/15 01:15:13;;;;;;;;;15.25;14.00;;;;;;;;5057722;28;45465;-70
2022/04/15 01:17:39;;;;;;;;;13.00;12.00;;;;;;;;5057892;28;45306;-70
2022/04/15 01:20:05;;;;;;;;;14.75;14.00;;;;;;;;5057807;28;45307;-70
2022/04/15 01:22:44;;;;;;;;;12.25;12.25;;;;;;;;5056262;28;45710;-70
2022/04/15 01:25:12;;;;;;;;;13.00;13.00;;;;;;;;5056279;28;45520;-70
2022/04/15 01:27:38;;;;;;;;;17.00;15.00;;;;;;;;5057735;28;45426;-70
2022/04/15 01:30:05;;;;;;;;;14.00;12.00;;;;;;;;5056169;28;45275;-70
2022/04/15 01:32:30;;;;;;;;;14.50;13.75;;;;;;;;5056100;28;45500;-70
2022/04/15 01:34:56;;;;;;;;;17.00;15.50;;;;;;;;5056112;28;45509;-70
2022/04/15 01:37:22;;;;;;;;;14.25;13.75;;;;;;;;5057433;28;45669;-70
2022/04/15 01:39:48;;;;;;;;;14.25;13.75;;;;;;;;5057635;28;45490;-70
2022/04/15 01:42:14;;;;;;;;;17.75;14.00;;;;;;;;5057487;28;45427;-70
2022/04/15 01:44:40;;;;;;;;;14.00;13.00;;;;;;;;5057231;28;45511;-70
2022/04/15 01:47:05;;;;;;;;;14.00;11.00;;;;;;;;5057410;28;45354;-70
2022/04/15 01:49:31;;;;;;;;;13.00;11.25;;;;;;;;5057199;28;45479;-70
2022/04/15 01:51:56;;;;;;;;;12.75;11.25;;;;;;;;5057290;28;46288;-70
2022/04/15 01:54:21;;;;;;;;;11.00;11.00;;;;;;;;5057352;28;45505;-70
2022/04/15 01:56:47;;;;;;;;;10.75;10.50;;;;;;;;5057722;28;45311;-70
2022/04/15 01:59:12;;;;;;;;;12.50;11.50;;;;;;;;5056239;28;45476;-70
2022/04/15 02:01:37;;;;;;;;;12.25;10.50;;;;;;;;5057101;28;45486;-70
2022/04/15 02:04:03;;;;;;;;;11.00;11.00;;;;;;;;5057262;28;45490;-70
2022/04/15 02:06:28;;;;;;;;;10.00;9.00;;;;;;;;5057340;28;45515;-70
2022/04/15 02:08:54;;;;;;;;;12.25;11.00;;;;;;;;5057216;28;45439;-70
2022/04/15 02:11:19;;;;;;;;;11.00;10.25;;;;;;;;5055726;28;45492;-70
2022/04/15 02:13:44;;;;;;;;;11.25;11.25;;;;;;;;5055872;28;45611;-70
2022/04/15 02:16:10;;;;;;;;;10.25;10.25;;;;;;;;5057283;28;45402;-70
2022/04/15 02:18:36;;;;;;;;;10.00;9.50;;;;;;;;5057276;28;45599;-70
2022/04/15 02:21:01;;;;;;;;;11.25;10.00;;;;;;;;5056850;28;45409;-70
2022/04/15 02:23:27;;;;;;;;;12.50;10.25;;;;;;;;5056783;28;45362;-70
2022/04/15 02:25:52;;;;;;;;;9.00;9.00;;;;;;;;5057072;28;45496;-70
2022/04/15 02:28:17;;;;;;;;;9.50;9.50;;;;;;;;5056087;28;45505;-70
2022/04/15 02:30:47;;;;;;;;;10.25;9.25;;;;;;;;5056347;28;45383;-70
2022/04/15 02:33:12;;;;;;;;;9.25;8.75;;;;;;;;5056719;28;45361;-70
2022/04/15 02:35:38;;;;;;;;;10.25;9.75;;;;;;;;5056816;28;45365;-70
2022/04/15 02:38:03;;;;;;;;;10.00;9.50;;;;;;;;5057180;28;45335;-70
2022/04/15 02:40:29;;;;;;;;;9.00;9.00;;;;;;;;5055234;28;45472;-70
2022/04/15 02:42:55;;;;;;;;;9.50;8.50;;;;;;;;5056598;28;45486;-70
2022/04/15 02:45:21;;;;;;;;;10.75;9.50;;;;;;;;5056924;28;45426;-70
2022/04/15 02:47:47;;;;;;;;;8.50;7.75;;;;;;;;5057365;28;45340;-70
2022/04/15 02:50:12;;;;;;;;;7.50;7.50;;;;;;;;5058591;28;47720;-70
2022/04/15 02:52:38;;;;;;;;;8.00;7.50;;;;;;;;5060068;28;45480;-70
2022/04/15 02:55:04;;;;;;;;;7.50;7.50;;;;;;;;5060095;28;45517;-70
2022/04/15 02:57:29;;;;;;;;;9.75;9.00;;;;;;;;5060299;28;45356;-70
2022/04/15 02:59:54;;;;;;;;;11.75;9.75;;;;;;;;5059808;28;46176;-70
2022/04/15 03:02:20;;;;;;;;;10.25;9.75;;;;;;;;5060416;28;45362;-70
2022/04/15 03:04:45;;;;;;;;;11.75;9.25;;;;;;;;5060183;28;45272;-70
2022/04/15 03:07:10;;;;;;;;;10.00;9.00;;;;;;;;5059827;28;45363;-70
2022/04/15 03:09:36;;;;;;;;;10.00;9.00;;;;;;;;5059524;28;46096;-70
2022/04/15 03:12:01;;;;;;;;;12.00;11.00;;;;;;;;5058553;28;45505;-70
2022/04/15 03:14:27;;;;;;;;;12.00;10.00;;;;;;;;5059918;28;45378;-70
2022/04/15 03:16:52;;;;;;;;;9.00;9.00;;;;;;;;5060477;28;45385;-70
2022/04/15 03:19:17;;;;;;;;;10.25;10.25;;;;;;;;5059739;28;46266;-70
2022/04/15 03:21:43;;;;;;;;;12.50;10.75;;;;;;;;5059770;28;45330;-70
2022/04/15 03:24:08;;;;;;;;;33.75;32.00;;;;;;;;5059824;28;45518;-70
2022/04/15 03:26:33;;;;;;;;;10.00;10.00;;;;;;;;5059698;28;46050;-70
2022/04/15 03:28:59;;;;;;;;;101.00;87.00;;;;;;;;5057327;28;46235;-70
2022/04/15 03:31:24;;;;;;;;;81.00;66.33;;;;;;;;5057582;28;45461;-70
2022/04/15 03:33:49;;;;;;;;;29.50;24.25;;;;;;;;5058356;28;45838;-70
2022/04/15 03:36:15;;;;;;;;;14.25;12.75;;;;;;;;5058165;28;45660;-69
2022/04/15 03:38:40;;;;;;;;;13.00;12.25;;;;;;;;5057499;28;46217;-70
2022/04/15 03:41:06;;;;;;;;;13.25;11.00;;;;;;;;5057472;28;45552;-70
2022/04/15 03:43:32;;;;;;;;;15.75;14.00;;;;;;;;5056287;28;45388;-70
2022/04/15 03:45:57;;;;;;;;;10.75;10.75;;;;;;;;5056277;28;45416;-71
2022/04/15 03:48:23;;;;;;;;;17.50;16.00;;;;;;;;5054716;28;45460;-70
2022/04/15 03:50:48;;;;;;;;;6.25;6.25;;;;;;;;5057388;28;45417;-69
2022/04/15 03:53:14;;;;;;;;;10.50;9.50;;;;;;;;5056525;28;45592;-70
2022/04/15 03:55:39;;;;;;;;;13.50;12.75;;;;;;;;5057671;28;45405;-70
2022/04/15 03:58:04;;;;;;;;;79.50;64.00;;;;;;;;5057311;28;46320;-70
2022/04/15 04:00:30;;;;;;;;;3.00;2.25;;;;;;;;5055853;28;45429;-70
2022/04/15 04:02:55;;;;;;;;;10.50;9.50;;;;;;;;5057670;28;45408;-71
2022/04/15 04:05:24;;;;;;;;;9.00;8.50;;;;;;;;5056471;28;45537;-71
2022/04/15 04:07:50;;;;;;;;;26.25;23.00;;;;;;;;5057428;28;46322;-70
2022/04/15 04:10:15;;;;;;;;;32.25;29.75;;;;;;;;5056787;28;45608;-72
2022/04/15 04:12:41;;;;;;;;;10.00;9.50;;;;;;;;5057064;28;45409;-70
2022/04/15 04:15:07;;;;;;;;;10.50;9.00;;;;;;;;5057209;28;45432;-69
2022/04/15 04:17:33;;;;;;;;;10.00;9.75;;;;;;;;5055391;28;46595;-70
2022/04/15 04:19:59;;;;;;;;;9.25;9.25;;;;;;;;5056607;28;45347;-70
2022/04/15 04:22:28;;;;;;;;;8.75;7.50;;;;;;;;5057148;28;45438;-70
2022/04/15 04:24:53;;;;;;;;;9.25;9.25;;;;;;;;5057431;28;45457;-70
2022/04/15 04:27:19;;;;;;;;;10.50;9.00;;;;;;;;5056578;28;45406;-70
2022/04/15 04:29:44;;;;;;;;;10.25;9.00;;;;;;;;5056649;28;45410;-69
2022/04/15 04:32:09;;;;;;;;;12.00;11.50;;;;;;;;5057072;28;45467;-70
2022/04/15 04:34:35;;;;;;;;;10.25;10.25;;;;;;;;5057036;28;45450;-70
2022/04/15 04:37:00;;;;;;;;;10.00;10.00;;;;;;;;5056393;28;45543;-70
2022/04/15 04:39:27;;;;;;;;;9.00;7.25;;;;;;;;5055374;28;46002;-70
2022/04/15 04:41:53;;;;;;;;;12.50;10.25;;;;;;;;5056852;28;45308;-69
2022/04/15 04:44:18;;;;;;;;;10.25;9.00;;;;;;;;5056521;28;45380;-70
2022/04/15 04:46:44;;;;;;;;;17.25;14.50;;;;;;;;5053727;28;46197;-70
2022/04/15 04:49:09;;;;;;;;;15.25;14.25;;;;;;;;5056512;28;45488;-70
2022/04/15 04:51:35;;;;;;;;;14.25;13.50;;;;;;;;5056696;28;45555;-71
2022/04/15 04:54:00;;;;;;;;;31.25;30.50;;;;;;;;5056350;28;45493;-70
2022/04/15 04:56:26;;;;;;;;;15.25;14.00;;;;;;;;5056533;28;45868;-70
2022/04/15 04:58:52;;;;;;;;;13.50;13.25;;;;;;;;5055273;28;45565;-70
2022/04/15 05:01:17;;;;;;;;;16.25;15.75;;;;;;;;5056269;28;45980;-70
2022/04/15 05:03:43;;;;;;;;;16.25;13.25;;;;;;;;5056532;28;45485;-70
2022/04/15 05:06:08;;;;;;;;;14.00;12.25;;;;;;;;5056023;28;45623;-70
2022/04/15 05:08:33;;;;;;;;;11.00;10.75;;;;;;;;5054822;28;45577;-71
2022/04/15 05:10:59;;;;;;;;;16.25;14.25;;;;;;;;5055622;28;45616;-70
2022/04/15 05:13:24;;;;;;;;;13.50;11.00;;;;;;;;5056640;28;45400;-70
2022/04/15 05:15:49;;;;;;;;;11.50;10.50;;;;;;;;5055887;28;45381;-70
2022/04/15 05:18:15;;;;;;;;;13.25;11.00;;;;;;;;5055763;28;45496;-70
2022/04/15 05:20:40;;;;;;;;;16.75;15.75;;;;;;;;5055897;28;45928;-70
2022/04/15 05:23:05;;;;;;;;;12.00;12.00;;;;;;;;5056407;28;45469;-69
2022/04/15 05:25:31;;;;;;;;;13.00;11.75;;;;;;;;5055886;28;46127;-70
2022/04/15 05:27:58;;;;;;;;;17.75;15.75;;;;;;;;5054437;28;45353;-70
2022/04/15 05:30:24;;;;;;;;;26.25;22.25;;;;;;;;5056238;28;45499;-70
2022/04/15 05:32:49;;;;;;;;;17.25;16.75;;;;;;;;5054644;28;45540;-70
2022/04/15 05:35:15;;;;;;;;;20.00;18.00;;;;;;;;5055603;28;45493;-70
2022/04/15 05:37:40;;;;;;;;;23.00;20.75;;;;;;;;5055791;28;45370;-70
2022/04/15 05:40:06;;;;;;;;;20.50;18.75;;;;;;;;5055979;28;45288;-70
2022/04/15 05:42:31;;;;;;;;;31.75;30.25;;;;;;;;5055938;28;45509;-70
2022/04/15 05:44:56;;;;;;;;;28.75;25.25;;;;;;;;5055525;28;45480;-70
2022/04/15 05:47:22;;;;;;;;;29.25;26.75;;;;;;;;5055590;28;45298;-70
2022/04/15 05:49:47;;;;;;;;;33.00;25.75;;;;;;;;5055583;28;45219;-71
2022/04/15 05:52:14;;;;;;;;;30.75;27.50;;;;;;;;5054529;28;45188;-71
2022/04/15 05:54:39;;;;;;;;;38.00;33.75;;;;;;;;5055374;28;46218;-70
2022/04/15 05:57:05;;;;;;;;;29.75;26.50;;;;;;;;5055075;28;45532;-71
2022/04/15 05:59:30;;;;;;;;;24.00;19.75;;;;;;;;5055281;28;45472;-70
2022/04/15 06:01:56;;;;;;;;;26.00;23.75;;;;;;;;5055779;28;45404;-70
2022/04/15 06:04:21;;;;;;;;;39.00;34.25;;;;;;;;5055436;28;46755;-70
2022/04/15 06:06:47;;;;;;;;;35.50;32.25;;;;;;;;5054165;28;45584;-70
2022/04/15 06:09:12;;;;;;;;;65.75;50.75;;;;;;;;5055250;28;45405;-70
2022/04/15 06:11:39;;;;;;;;;61.25;48.75;;;;;;;;5055357;28;45531;-70
2022/04/15 06:14:06;;;;;;;;;42.25;37.00;;;;;;;;5052347;28;45565;-70
2022/04/15 06:16:32;;;;;;;;;29.25;29.00;;;;;;;;5053804;28;45502;-70
2022/04/15 06:18:58;;;;;;;;;32.00;28.00;;;;;;;;5055224;28;45417;-70
2022/04/15 06:21:23;;;;;;;;;28.75;24.00;;;;;;;;5055542;28;45483;-70
2022/04/15 06:23:48;;;;;;;;;19.75;17.50;;;;;;;;5055112;28;47459;-70
2022/04/15 06:26:14;;;;;;;;;27.75;26.50;;;;;;;;5057177;28;45615;-70
2022/04/15 06:28:39;;;;;;;;;20.00;16.75;;;;;;;;5058570;28;45856;-70
2022/04/15 06:31:04;;;;;;;;;20.50;19.50;;;;;;;;5058545;28;45637;-70
2022/04/15 06:33:30;;;;;;;;;27.75;23.50;;;;;;;;5058428;28;45506;-70
2022/04/15 06:35:55;;;;;;;;;31.00;26.75;;;;;;;;5058793;28;45414;-71
2022/04/15 06:38:20;;;;;;;;;19.50;17.75;;;;;;;;5058513;28;45297;-70
2022/04/15 06:40:46;;;;;;;;;23.00;21.50;;;;;;;;5057522;28;45683;-70
2022/04/15 06:43:11;;;;;;;;;24.00;22.25;;;;;;;;5059872;28;45287;-70
2022/04/15 06:45:37;;;;;;;;;26.50;22.25;;;;;;;;5059990;28;45404;-70
2022/04/15 06:48:02;;;;;;;;;30.00;24.00;;;;;;;;5060008;28;45247;-70
2022/04/15 06:50:28;;;;;;;;;27.00;24.50;;;;;;;;5059908;28;45342;-69
2022/04/15 06:52:53;;;;;;;;;24.50;22.00;;;;;;;;5060096;28;45678;-70
2022/04/15 06:55:19;;;;;;;;;26.75;23.50;;;;;;;;5059952;28;45479;-71
2022/04/15 06:57:44;;;;;;;;;22.25;21.75;;;;;;;;5059783;28;45775;-70
2022/04/15 07:00:13;;;;;;;;;23.75;22.00;;;;;;;;5059874;28;45417;-70
2022/04/15 07:02:39;;;;;;;;;27.50;24.00;;;;;;;;5059789;28;45481;-71
2022/04/15 07:05:05;;;;;;;;;20.25;18.75;;;;;;;;5059421;28;45468;-68
2022/04/15 07:07:31;;;;;;;;;22.50;19.75;;;;;;;;5059746;28;45401;-70
2022/04/15 07:09:56;;;;;;;;;17.75;16.75;;;;;;;;5057118;28;45484;-68
2022/04/15 07:12:22;;;;;;;;;15.75;14.00;;;;;;;;5056969;28;45639;-69
2022/04/15 07:14:47;;;;;;;;;18.00;17.00;;;;;;;;5057874;28;45625;-69
2022/04/15 07:17:12;;;;;;;;;16.50;16.25;;;;;;;;5058177;28;45951;-68
2022/04/15 07:19:38;;;;;;;;;20.50;18.00;;;;;;;;5058538;28;45579;-68
2022/04/15 07:22:05;;;;;;;;;26.50;22.25;;;;;;;;5058371;28;46291;-69
2022/04/15 07:24:32;;;;;;;;;34.25;30.00;;;;;;;;5058489;28;45476;-67
2022/04/15 07:26:57;;;;;;;;;32.75;30.25;;;;;;;;5057288;28;45477;-69
2022/04/15 07:29:25;;;;;;;;;31.00;30.00;;;;;;;;5056955;28;45500;-67
2022/04/15 07:31:50;;;;;;;;;36.25;30.75;;;;;;;;5057943;28;45730;-69
2022/04/15 07:34:15;;;;;;;;;54.25;44.75;;;;;;;;5056249;28;45449;-68
2022/04/15 07:39:07;;;;;;;;;34.50;30.00;;;;;;;;5058611;28;45519;-67
2022/04/15 07:41:36;;;;;;;;;31.00;29.75;;;;;;;;5058205;28;45465;-74
2022/04/15 07:44:11;;;;;;;;;29.00;27.00;;;;;;;;5058077;28;45494;-69
2022/04/15 07:46:37;;;;;;;;;24.75;23.00;;;;;;;;5058195;28;45397;-69
2022/04/15 07:49:04;;;;;;;;;27.00;25.25;;;;;;;;5058379;28;45520;-67
2022/04/15 07:51:30;;;;;;;;;33.00;30.00;;;;;;;;5058117;28;45508;-67
2022/04/15 07:53:55;;;;;;;;;28.75;24.75;;;;;;;;5058009;28;45452;-67
2022/04/15 07:56:20;;;;;;;;;27.00;23.50;;;;;;;;5058010;28;45588;-69
2022/04/15 07:58:46;;;;;;;;;26.75;25.00;;;;;;;;5058128;28;45310;-67
2022/04/15 08:01:12;;;;;;;;;23.75;22.25;;;;;;;;5013915;27;45543;-67
2022/04/15 08:03:38;;;;;;;;;22.25;20.50;;;;;;;;5037542;28;45464;-67
2022/04/15 08:06:03;;;;;;;;;24.75;21.75;;;;;;;;5037269;28;45458;-70
2022/04/15 08:08:29;;;;;;;;;18.25;17.00;;;;;;;;5037729;28;45256;-69
2022/04/15 08:10:55;;;;;;;;;16.75;15.25;;;;;;;;5035691;28;45379;-68
2022/04/15 08:13:21;;;;;;;;;18.33;16.00;;;;;;;;5035839;28;45197;-68
2022/04/15 08:15:48;;;;;;;;;15.33;15.00;;;;;;;;5037221;28;45437;-69
2022/04/15 08:18:14;;;;;;;;;24.00;18.75;;;;;;;;5035845;28;45557;-68
2022/04/15 08:20:39;;;;;;;;;19.00;18.25;;;;;;;;5037003;28;45589;-68
2022/04/15 08:23:04;;;;;;;;;15.25;14.50;;;;;;;;5036894;28;45478;-68
2022/04/15 08:25:30;;;;;;;;;17.33;16.33;;;;;;;;5037307;28;45740;-68
2022/04/15 08:27:55;;;;;;;;;18.25;17.75;;;;;;;;5037384;28;45675;-68
2022/04/15 08:30:21;;;;;;;;;19.25;18.75;;;;;;;;5036482;28;45538;-68
2022/04/15 08:32:52;;;;;;;;;16.50;15.75;;;;;;;;5037049;28;45406;-68
2022/04/15 08:35:18;;;;;;;;;20.33;17.67;;;;;;;;5036879;28;45330;-69
2022/04/15 08:37:43;;;;;;;;;17.25;14.25;;;;;;;;5036698;28;45300;-68
2022/04/15 08:40:11;;;;;;;;;15.33;13.67;;;;;;;;5036797;28;45343;-69
2022/04/15 08:42:36;;;;;;;;;16.67;14.67;;;;;;;;5036178;28;45402;-69
2022/04/15 08:45:02;;;;;;;;;17.67;17.00;;;;;;;;5036750;28;45463;-69
2022/04/15 08:47:29;;;;;;;;;13.33;13.00;;;;;;;;5036268;28;45402;-70
2022/04/15 08:49:55;;;;;;;;;14.33;14.33;;;;;;;;5035713;28;46022;-68
2022/04/15 08:52:22;;;;;;;;;17.67;14.33;;;;;;;;5034395;28;45510;-71
2022/04/15 08:54:48;;;;;;;;;14.33;13.00;;;;;;;;5035923;28;45554;-71
2022/04/15 08:57:13;;;;;;;;;15.00;13.25;;;;;;;;5034328;28;45585;-70
2022/04/15 08:59:41;;;;;;;;;14.33;12.33;;;;;;;;5035295;28;45418;-69
2022/04/15 09:02:07;;;;;;;;;13.33;13.33;;;;;;;;5035771;28;45450;-69
2022/04/15 09:04:32;;;;;;;;;12.33;11.67;;;;;;;;5036299;28;45395;-73
2022/04/15 09:07:02;;;;;;;;;12.00;12.00;;;;;;;;5035268;28;45443;-74
2022/04/15 09:09:31;;;;;;;;;11.33;10.67;;;;;;;;5036085;28;45438;-73
2022/04/15 09:11:57;;;;;;;;;11.00;10.67;;;;;;;;5035764;28;45426;-74
2022/04/15 09:14:23;;;;;;;;;14.00;12.00;;;;;;;;5035585;28;45488;-73
2022/04/15 09:16:49;;;;;;;;;11.33;11.33;;;;;;;;5036072;28;45468;-74
2022/04/15 09:19:15;;;;;;;;;17.00;16.50;;;;;;;;5035463;28;45478;-74
2022/04/15 09:21:51;;;;;;;;;12.00;11.00;;;;;;;;5035897;28;45394;-74
2022/04/15 09:24:17;;;;;;;;;11.00;9.67;;;;;;;;5036094;28;45426;-74
2022/04/15 09:26:45;;;;;;;;;10.67;8.67;;;;;;;;5036019;28;45351;-73
2022/04/15 09:29:12;;;;;;;;;9.33;8.67;;;;;;;;5034295;28;46840;-75
2022/04/15 09:31:37;;;;;;;;;11.00;10.00;;;;;;;;5035410;28;45552;-76
2022/04/15 09:34:03;;;;;;;;;12.33;11.33;;;;;;;;5033644;28;45396;-76
2022/04/15 09:36:30;;;;;;;;;12.67;12.67;;;;;;;;5033847;28;45301;-75
2022/04/15 09:38:56;;;;;;;;;20.67;18.00;;;;;;;;5033448;28;48169;-78
2022/04/15 09:41:22;;;;;;;;;12.67;12.67;;;;;;;;5032819;28;45378;-77
2022/04/15 09:43:52;;;;;;;;;10.67;9.00;;;;;;;;5033125;28;45508;-79
2022/04/15 09:46:18;;;;;;;;;12.67;10.67;;;;;;;;5039452;28;45351;-77
2022/04/15 09:49:19;;;;;;;;;8.67;8.00;;;;;;;;5054316;28;47315;-78
2022/04/15 09:51:54;;;;;;;;;12.33;11.00;;;;;;;;5032664;28;45421;-77
2022/04/15 09:54:27;;;;;;;;;11.00;10.00;;;;;;;;5054356;28;45479;-77
2022/04/15 09:56:54;;;;;;;;;14.33;13.67;;;;;;;;5054261;28;45333;-75
2022/04/15 09:59:20;;;;;;;;;17.33;13.67;;;;;;;;5053976;28;46484;-77
2022/04/15 10:01:47;;;;;;;;;12.67;11.67;;;;;;;;5055967;28;45874;-78
2022/04/15 10:04:13;;;;;;;;;12.67;11.00;;;;;;;;5054662;28;45286;-71
2022/04/15 10:06:39;;;;;;;;;11.00;10.33;;;;;;;;5055777;28;45553;-79
2022/04/15 10:09:06;;;;;;;;;11.67;9.67;;;;;;;;5056049;28;46256;-74
2022/04/15 10:11:35;;;;;;;;;10.67;10.33;;;;;;;;5055964;28;45516;-78
2022/04/15 10:14:00;;;;;;;;;11.33;10.00;;;;;;;;5055391;28;45508;-71
2022/04/15 10:16:26;;;;;;;;;11.33;11.33;;;;;;;;5056284;28;45510;-71
2022/04/15 10:18:52;;;;;;;;;9.00;8.33;;;;;;;;5055062;28;45535;-72
2022/04/15 10:21:18;;;;;;;;;9.00;7.33;;;;;;;;5055295;28;45663;-71
2022/04/15 10:23:43;;;;;;;;;6.00;5.67;;;;;;;;5054418;28;45479;-71
2022/04/15 10:26:09;;;;;;;;;7.33;7.33;;;;;;;;5055872;28;45377;-71
2022/04/15 10:28:38;;;;;;;;;10.00;9.00;;;;;;;;5056023;28;46455;-77
2022/04/15 10:31:11;;;;;;;;;10.00;8.33;;;;;;;;5055164;28;45282;-71
2022/04/15 10:33:39;;;;;;;;;7.00;6.33;;;;;;;;5054883;28;45384;-71
2022/04/15 10:36:20;;;;;;;;;7.00;7.00;;;;;;;;5056082;28;45422;-71
2022/04/15 10:39:03;;;;;;;;;6.00;6.00;;;;;;;;5055592;28;45969;-71
2022/04/15 10:41:41;;;;;;;;;6.00;6.00;;;;;;;;5053846;28;45420;-68
2022/04/15 10:44:07;;;;;;;;;6.00;6.00;;;;;;;;5056019;28;45396;-71
2022/04/15 10:46:35;;;;;;;;;12.00;11.67;;;;;;;;5055326;28;45438;-71
2022/04/15 10:49:02;;;;;;;;;8.67;8.00;;;;;;;;5054861;28;45478;-70
2022/04/15 10:51:33;;;;;;;;;7.00;7.00;;;;;;;;5054246;28;45369;-71
2022/04/15 10:54:17;;;;;;;;;5.00;5.00;;;;;;;;5055270;28;45437;-69
2022/04/15 10:56:59;;;;;;;;;8.67;8.67;;;;;;;;5052967;28;45622;-71
2022/04/15 11:02:15;;;;;;;;;9.33;8.67;;;;;;;;5054545;28;45489;-71
2022/04/15 11:04:42;;;;;;;;;6.00;6.00;;;;;;;;5055088;28;45292;-70
2022/04/15 11:07:14;;;;;;;;;8.33;8.00;;;;;;;;5054874;28;45473;-71
2022/04/15 11:09:40;;;;;;;;;9.00;7.67;;;;;;;;5054625;28;45493;-71
2022/04/15 11:12:06;;;;;;;;;6.33;6.33;;;;;;;;5058354;28;45524;-70
2022/04/15 11:14:38;;;;;;;;;7.00;6.67;;;;;;;;5058975;28;45493;-71
2022/04/15 11:17:07;;;;;;;;;8.00;8.00;;;;;;;;5058878;28;45430;-70
2022/04/15 11:19:32;;;;;;;;;7.33;6.33;;;;;;;;5057083;28;48034;-70
2022/04/15 11:22:00;;;;;;;;;9.00;8.00;;;;;;;;5058281;28;45449;-71
2022/04/15 11:24:27;;;;;;;;;6.33;6.33;;;;;;;;5058304;28;45262;-69
2022/04/15 11:26:56;;;;;;;;;6.00;5.67;;;;;;;;5058891;28;45477;-69
2022/04/15 11:29:26;;;;;;;;;8.00;7.00;;;;;;;;5057059;28;47047;-69
2022/04/15 11:31:56;;;;;;;;;8.00;6.00;;;;;;;;5056760;28;45346;-70
2022/04/15 11:34:22;;;;;;;;;6.00;6.00;;;;;;;;5058318;28;45438;-70
2022/04/15 11:36:49;;;;;;;;;7.00;7.00;;;;;;;;5058620;28;45429;-70
2022/04/15 11:39:15;;;;;;;;;7.67;7.67;;;;;;;;5058474;28;45480;-69
2022/04/15 11:41:44;;;;;;;;;7.33;6.00;;;;;;;;5058712;28;45457;-70
2022/04/15 11:44:11;;;;;;;;;8.33;7.00;;;;;;;;5058819;28;45459;-69
2022/04/15 11:46:36;;;;;;;;;8.67;8.00;;;;;;;;5058367;28;45322;-69
2022/04/15 11:49:31;;;;;;;;;6.33;6.33;;;;;;;;5057792;28;45962;-69
2022/04/15 11:51:58;;;;;;;;;9.33;6.67;;;;;;;;5053934;28;45519;-70
2022/04/15 11:54:24;;;;;;;;;8.00;7.00;;;;;;;;5058280;28;45355;-70
2022/04/15 11:56:54;;;;;;;;;8.00;7.00;;;;;;;;5056939;28;45433;-69
2022/04/15 11:59:19;;;;;;;;;7.67;7.00;;;;;;;;5057986;28;45484;-70
2022/04/15 12:01:45;;;;;;;;;5.67;5.67;;;;;;;;5057899;28;45464;-70
2022/04/15 12:04:10;;;;;;;;;8.00;6.00;;;;;;;;5058654;28;45571;-69
2022/04/15 12:06:40;;;;;;;;;6.33;6.33;;;;;;;;5056621;28;45350;-70
2022/04/15 12:09:06;;;;;;;;;9.00;6.00;;;;;;;;5057518;28;46664;-70
2022/04/15 12:11:32;;;;;;;;;8.00;7.00;;;;;;;;5057526;28;45317;-70
2022/04/15 12:13:58;;;;;;;;;6.00;5.33;;;;;;;;5057946;28;45215;-69
2022/04/15 12:16:24;;;;;;;;;8.33;8.00;;;;;;;;5058151;28;45206;-70
2022/04/15 12:18:50;;;;;;;;;8.00;7.67;;;;;;;;5058171;28;45642;-70
2022/04/15 12:21:17;;;;;;;;;5.67;5.00;;;;;;;;5056907;28;45404;-69
2022/04/15 12:23:58;;;;;;;;;12.00;7.67;;;;;;;;5058066;28;45480;-70
2022/04/15 12:26:23;;;;;;;;;7.00;6.33;;;;;;;;5058282;28;46075;-70
2022/04/15 12:31:33;;;;;;;;;8.33;7.33;;;;;;;;5057875;28;45441;-70
2022/04/15 12:33:59;;;;;;;;;56.75;42.50;;;;;;;;5056615;28;45541;-70
2022/04/15 12:36:25;;;;;;;;;13.00;11.33;;;;;;;;5056540;28;45561;-70
2022/04/15 12:38:57;;;;;;;;;6.00;5.00;;;;;;;;5057464;28;45404;-70
2022/04/15 12:41:23;;;;;;;;;7.00;6.33;;;;;;;;5057447;28;45201;-70
2022/04/15 12:43:48;;;;;;;;;9.00;8.00;;;;;;;;5057469;28;45339;-69
2022/04/15 12:46:17;;;;;;;;;7.00;7.00;;;;;;;;5058020;28;45368;-70
2022/04/15 12:48:48;;;;;;;;;8.00;8.00;;;;;;;;5057685;28;45612;-70
2022/04/15 12:51:14;;;;;;;;;11.00;8.00;;;;;;;;5057908;28;45572;-69
2022/04/15 12:53:40;;;;;;;;;6.67;6.00;;;;;;;;5057450;28;45351;-69
2022/04/15 12:56:10;;;;;;;;;9.00;8.00;;;;;;;;5055768;28;45865;-69
2022/04/15 12:58:35;;;;;;;;;3.00;3.00;;;;;;;;5056995;28;45342;-72
2022/04/15 13:01:00;;;;;;;;;9.00;8.67;;;;;;;;5057047;28;45450;-69
2022/04/15 13:03:28;;;;;;;;;51.25;39.00;;;;;;;;5057211;28;45350;-69
2022/04/15 13:05:54;;;;;;;;;22.50;19.25;;;;;;;;5056640;28;45348;-70
2022/04/15 13:08:20;;;;;;;;;33.75;31.00;;;;;;;;5056471;28;45426;-70
2022/04/15 13:10:47;;;;;;;;;9.00;9.00;;;;;;;;5056489;28;45431;-70
2022/04/15 13:13:13;;;;;;;;;10.67;10.00;;;;;;;;5057096;28;45406;-70
2022/04/15 13:15:38;;;;;;;;;8.67;8.33;;;;;;;;5057171;28;45354;-70
2022/04/15 13:18:04;;;;;;;;;8.00;8.00;;;;;;;;5055204;28;45450;-69
2022/04/15 13:20:31;;;;;;;;;7.00;6.00;;;;;;;;5056373;28;45386;-70
2022/04/15 13:22:56;;;;;;;;;7.67;7.67;;;;;;;;5054812;28;45277;-70
2022/04/15 13:25:22;;;;;;;;;8.33;7.33;;;;;;;;5056632;28;45426;-69
2022/04/15 13:27:47;;;;;;;;;9.67;8.67;;;;;;;;5054765;28;45509;-70
2022/04/15 13:30:13;;;;;;;;;8.33;8.00;;;;;;;;5056180;28;45512;-70
2022/04/15 13:32:38;;;;;;;;;9.33;9.33;;;;;;;;5055521;28;45333;-70
2022/04/15 13:35:04;;;;;;;;;9.67;9.00;;;;;;;;5054609;28;45507;-70
2022/04/15 13:37:29;;;;;;;;;8.00;8.00;;;;;;;;5055298;28;45445;-70
2022/04/15 13:39:54;;;;;;;;;6.67;6.67;;;;;;;;5055962;28;45448;-71
2022/04/15 13:42:20;;;;;;;;;7.00;7.00;;;;;;;;5056330;28;45270;-70
2022/04/15 13:44:46;;;;;;;;;7.00;6.33;;;;;;;;5055907;28;45392;-70
2022/04/15 13:47:11;;;;;;;;;7.67;7.33;;;;;;;;5055759;28;45519;-70
2022/04/15 13:49:37;;;;;;;;;6.00;6.00;;;;;;;;5055821;28;45335;-70
2022/04/15 13:57:32;;;;;;;;;7.67;7.00;;;;;;;;5056127;28;45570;-70
2022/04/15 14:00:01;;;;;;;;;7.33;7.00;;;;;;;;5055980;28;45263;-70
2022/04/15 14:02:27;;;;;;;;;8.00;6.00;;;;;;;;5054881;28;45448;-71
2022/04/15 14:04:52;;;;;;;;;8.33;8.00;;;;;;;;5055576;28;45572;-70
2022/04/15 14:07:17;;;;;;;;;7.33;6.00;;;;;;;;5054693;28;45747;-70
2022/04/15 14:09:43;;;;;;;;;7.00;7.00;;;;;;;;5056354;28;45263;-70
2022/04/15 14:12:08;;;;;;;;;11.00;10.00;;;;;;;;5056014;28;45244;-70
2022/04/15 14:14:33;;;;;;;;;11.00;10.00;;;;;;;;5055914;28;45282;-70
2022/04/15 14:16:58;;;;;;;;;9.00;9.00;;;;;;;;5055460;28;46358;-70
2022/04/15 14:19:24;;;;;;;;;16.67;11.67;;;;;;;;5055249;28;45341;-70
2022/04/15 14:21:49;;;;;;;;;10.00;9.00;;;;;;;;5056029;28;45279;-69
2022/04/15 14:24:15;;;;;;;;;10.33;10.00;;;;;;;;5056047;28;45394;-69
2022/04/15 14:26:40;;;;;;;;;12.00;12.00;;;;;;;;5055572;28;46355;-70
2022/04/15 14:29:05;;;;;;;;;9.67;9.00;;;;;;;;5056084;28;45341;-70
2022/04/15 14:31:31;;;;;;;;;9.00;8.00;;;;;;;;5055679;28;45510;-69
2022/04/15 14:33:56;;;;;;;;;7.33;7.33;;;;;;;;5055807;28;45422;-70
2022/04/15 14:36:22;;;;;;;;;10.67;10.67;;;;;;;;5055320;28;46110;-68